Time;durP1;ratioP1;P1;durP2;ratioP2;P2;SDS_P1;SDS_P2;PMS_P1;PMS_P2;Temp;Humidity;BMP_temperature;BMP_pressure;BME280_temperature;BME280_humidity;BME280_pressure;Samples;Min_cycle;Max_cycle;Signal;HPM_P1;HPM_P2
2022/03/31 00:00:58;;;;;;;5.95;5.40;;;;;;;6.20;60.94;100063.38;5031697;28;20021;-65
2022/03/31 00:03:23;;;;;;;5.57;5.07;;;;;;;6.19;61.15;100051.13;5031408;28;20029;-65
2022/03/31 00:05:49;;;;;;;5.63;5.03;;;;;;;6.18;60.96;100046.81;5031522;28;20033;-65
2022/03/31 00:08:17;;;;;;;6.53;5.10;;;;;;;6.18;61.47;100052.09;5031700;28;20049;-65
2022/03/31 00:10:44;;;;;;;8.93;5.45;;;;;;;6.18;61.26;100053.88;5030789;28;20530;-65
2022/03/31 00:13:12;;;;;;;6.15;5.20;;;;;;;6.14;61.38;100061.16;5044785;28;20306;-64
2022/03/31 00:15:38;;;;;;;6.10;5.47;;;;;;;6.14;61.14;100068.22;5051137;28;20036;-64
2022/03/31 00:18:05;;;;;;;7.07;5.13;;;;;;;6.14;61.52;100066.44;5034247;28;20049;-65
2022/03/31 00:23:52;;;;;;;6.18;5.32;;;;;;;6.21;61.63;100074.75;5040102;28;20047;-63
2022/03/31 00:26:17;;;;;;;6.18;5.57;;;;;;;6.20;61.63;100071.28;5050766;28;20378;-64
2022/03/31 00:28:42;;;;;;;6.47;5.88;;;;;;;6.22;61.88;100071.16;5038331;28;20029;-64
2022/03/31 00:31:08;;;;;;;5.65;5.15;;;;;;;6.22;61.57;100069.38;5030809;28;20142;-64
2022/03/31 00:33:33;;;;;;;5.93;5.38;;;;;;;6.23;61.80;100064.97;5048390;28;20052;-64
2022/03/31 00:35:58;;;;;;;6.00;5.40;;;;;;;6.25;61.86;100063.88;5030531;28;20030;-64
2022/03/31 00:38:24;;;;;;;6.25;5.65;;;;;;;6.26;61.70;100057.66;5030688;28;20052;-64
2022/03/31 00:40:49;;;;;;;6.07;5.55;;;;;;;6.24;61.79;100064.81;5039513;28;20052;-64
2022/03/31 00:43:14;;;;;;;5.93;5.35;;;;;;;6.26;61.83;100067.34;5036249;28;20041;-64
2022/03/31 00:45:51;;;;;;;6.97;6.20;;;;;;;6.25;62.02;100063.06;5030664;28;20044;-64
2022/03/31 00:48:19;;;;;;;7.28;6.50;;;;;;;6.23;61.89;100067.59;5030487;28;20034;-63
2022/03/31 00:50:45;;;;;;;7.72;6.45;;;;;;;6.25;61.72;100060.41;5030610;28;20029;-64
2022/03/31 00:53:11;;;;;;;7.32;6.50;;;;;;;6.24;61.74;100058.72;5030465;28;20116;-64
2022/03/31 00:55:37;;;;;;;7.47;6.68;;;;;;;6.21;62.09;100062.44;5030212;28;20108;-64
2022/03/31 00:58:03;;;;;;;8.40;7.47;;;;;;;6.16;62.45;100058.41;5040608;28;20033;-64
2022/03/31 01:00:29;;;;;;;10.02;7.80;;;;;;;6.15;62.44;100054.09;5041997;28;20030;-64
2022/03/31 01:02:55;;;;;;;8.90;8.00;;;;;;;6.11;62.36;100054.31;5030302;28;20104;-64
2022/03/31 01:05:20;;;;;;;8.68;7.68;;;;;;;6.09;62.47;100052.72;5030274;28;20061;-64
2022/03/31 01:07:46;;;;;;;9.25;7.78;;;;;;;6.09;62.56;100048.28;5030212;28;20096;-64
2022/03/31 01:10:13;;;;;;;9.45;7.65;;;;;;;6.10;62.79;100050.00;5030280;28;20510;-65
2022/03/31 01:12:39;;;;;;;11.00;7.45;;;;;;;6.10;62.84;100047.34;5030200;28;20479;-64
2022/03/31 01:15:16;;;;;;;10.60;8.45;;;;;;;6.05;62.73;100041.56;5029678;28;20494;-62
2022/03/31 01:17:45;;;;;;;10.38;8.45;;;;;;;5.98;62.91;100037.69;5030184;28;20170;-64
2022/03/31 01:20:16;;;;;;;9.93;8.15;;;;;;;5.98;63.15;100037.69;5030005;28;20030;-64
2022/03/31 01:22:43;;;;;;;11.25;8.63;;;;;;;5.99;63.07;100030.59;5032670;28;20475;-64
2022/03/31 01:25:09;;;;;;;12.07;9.15;;;;;;;5.99;63.31;100033.25;5030016;28;20112;-63
2022/03/31 01:27:37;;;;;;;9.85;8.20;;;;;;;6.00;63.57;100034.94;5029738;28;20026;-64
2022/03/31 01:30:05;;;;;;;11.32;8.40;;;;;;;5.96;63.64;100026.38;5029882;28;20459;-64
2022/03/31 01:32:31;;;;;;;10.68;8.65;;;;;;;5.96;63.56;100033.44;5042885;28;20029;-64
2022/03/31 01:34:57;;;;;;;9.10;7.50;;;;;;;5.94;63.60;100028.25;5034847;28;20036;-64
2022/03/31 01:37:23;;;;;;;10.77;7.95;;;;;;;5.88;63.91;100024.28;5030005;28;20029;-65
2022/03/31 01:39:48;;;;;;;10.90;8.23;;;;;;;5.87;63.65;100027.84;5029808;28;20091;-65
2022/03/31 01:42:14;;;;;;;11.02;9.05;;;;;;;5.84;63.95;100014.88;5029801;28;20029;-65
2022/03/31 01:44:39;;;;;;;12.73;9.10;;;;;;;5.81;64.29;100014.25;5043019;28;20399;-65
2022/03/31 01:47:05;;;;;;;11.15;8.90;;;;;;;5.78;64.27;100017.97;5029855;28;20041;-65
2022/03/31 01:49:31;;;;;;;11.32;9.32;;;;;;;5.79;64.53;100024.91;5029593;28;20072;-65
2022/03/31 01:51:56;;;;;;;10.70;8.75;;;;;;;5.79;64.46;100013.53;5029593;28;20066;-65
2022/03/31 01:54:22;;;;;;;10.75;8.60;;;;;;;5.75;64.88;100016.38;5029810;28;20109;-65
2022/03/31 01:56:48;;;;;;;12.32;9.88;;;;;;;5.71;65.82;100012.28;5029548;28;20025;-65
2022/03/31 01:59:14;;;;;;;10.55;9.00;;;;;;;5.70;65.76;100013.22;5029645;28;20029;-65
2022/03/31 02:01:39;;;;;;;12.00;10.02;;;;;;;5.68;65.89;100004.59;5029951;28;20432;-65
2022/03/31 02:04:05;;;;;;;15.45;10.75;;;;;;;5.64;65.89;100010.16;5029527;28;20490;-65
2022/03/31 02:06:31;;;;;;;16.73;11.05;;;;;;;5.60;66.04;100009.53;5029811;28;20037;-65
2022/03/31 02:08:57;;;;;;;14.75;11.05;;;;;;;5.59;66.13;99999.13;5029599;28;20336;-65
2022/03/31 02:11:22;;;;;;;16.10;11.32;;;;;;;5.55;66.62;99995.84;5029461;28;20103;-65
2022/03/31 02:13:48;;;;;;;14.75;11.02;;;;;;;5.51;66.46;99995.22;5029602;28;20021;-65
2022/03/31 02:16:14;;;;;;;13.77;10.80;;;;;;;5.49;66.89;99993.63;5029578;28;20025;-65
2022/03/31 02:18:40;;;;;;;14.95;11.02;;;;;;;5.47;67.06;99999.00;5029785;28;20108;-65
2022/03/31 02:21:05;;;;;;;15.20;11.48;;;;;;;5.44;67.53;99988.69;5029235;28;20025;-65
2022/03/31 02:23:31;;;;;;;15.98;11.25;;;;;;;5.42;67.45;99993.22;5029199;28;20026;-65
2022/03/31 02:25:56;;;;;;;14.43;10.85;;;;;;;5.40;67.76;99986.38;5074307;22;20465;-78
2022/03/31 02:28:21;;;;;;;13.15;10.35;;;;;;;5.32;68.09;99976.38;5030189;28;20393;-79
2022/03/31 02:30:48;;;;;;;13.82;9.88;;;;;;;5.39;68.60;99993.44;5029573;28;20032;-78
2022/03/31 02:33:13;;;;;;;11.48;9.45;;;;;;;5.41;68.69;99993.31;5020692;28;20025;-78
2022/03/31 02:35:38;;;;;;;14.10;9.73;;;;;;;5.37;68.36;99996.16;5042340;28;20025;-78
2022/03/31 02:38:04;;;;;;;13.63;10.07;;;;;;;5.35;68.45;99997.22;5027171;28;20101;-79
2022/03/31 02:40:29;;;;;;;13.15;9.82;;;;;;;5.33;68.55;99988.59;5042818;28;20023;-78
2022/03/31 02:42:54;;;;;;;10.75;9.20;;;;;;;5.27;69.32;99981.94;5053133;28;20079;-78
2022/03/31 02:45:20;;;;;;;10.52;8.93;;;;;;;5.31;69.96;99993.09;5053768;28;20387;-79
2022/03/31 02:47:46;;;;;;;10.20;8.35;;;;;;;5.29;70.39;99992.38;5042442;28;20067;-79
2022/03/31 02:50:13;;;;;;;10.85;8.20;;;;;;;5.29;70.83;99984.47;5054159;28;20086;-79
2022/03/31 02:55:25;;;;;;;12.75;8.77;;;;;;;5.22;71.30;99975.31;5037854;28;20041;-78
2022/03/31 02:57:51;;;;;;;11.60;8.88;;;;;;;5.19;71.46;99974.56;5014062;28;20294;-79
2022/03/31 03:00:20;;;;;;;10.23;9.10;;;;;;;5.14;71.64;99974.03;5018080;28;20548;-79
2022/03/31 03:02:45;;;;;;;10.68;8.93;;;;;;;5.13;72.09;99971.50;5029044;28;20342;-78
2022/03/31 03:05:11;;;;;;;10.95;8.50;;;;;;;5.05;72.61;99964.16;5028997;28;20021;-79
2022/03/31 03:07:36;;;;;;;10.73;9.07;;;;;;;5.05;72.49;99973.84;5024834;28;20038;-79
2022/03/31 03:10:01;;;;;;;8.02;7.22;;;;;;;5.01;72.44;99960.00;5013929;28;20052;-78
2022/03/31 03:12:26;;;;;;;7.80;6.50;;;;;;;5.04;71.77;99966.88;5013704;28;20037;-78
2022/03/31 03:14:52;;;;;;;7.38;6.50;;;;;;;5.00;72.16;99953.91;5013995;28;20061;-79
2022/03/31 03:17:17;;;;;;;6.65;6.05;;;;;;;4.99;72.03;99965.38;5017402;28;20033;-79
2022/03/31 03:19:43;;;;;;;6.43;5.78;;;;;;;4.92;71.99;99963.28;5033841;28;20120;-79
2022/03/31 03:22:08;;;;;;;6.07;5.55;;;;;;;4.88;72.28;99973.19;5032685;28;20741;-80
2022/03/31 03:24:33;;;;;;;6.00;5.40;;;;;;;4.78;72.15;99959.78;5033480;28;20469;-80
2022/03/31 03:26:59;;;;;;;5.43;4.43;;;;;;;4.79;72.16;99969.34;5017404;28;20472;-79
2022/03/31 03:29:24;;;;;;;5.35;4.95;;;;;;;4.72;71.99;99968.09;5013526;28;20037;-79
2022/03/31 03:31:51;;;;;;;5.10;4.60;;;;;;;4.70;72.21;99963.88;5013409;28;20041;-80
2022/03/31 03:34:16;;;;;;;4.97;4.57;;;;;;;4.61;72.22;99963.53;5016661;28;20039;-79
2022/03/31 03:36:41;;;;;;;4.38;3.97;;;;;;;4.59;72.33;99962.78;5033036;28;20033;-79
2022/03/31 03:39:06;;;;;;;4.72;3.85;;;;;;;4.51;72.19;99965.06;5037896;28;20057;-80
2022/03/31 03:41:32;;;;;;;3.78;3.47;;;;;;;4.46;72.20;99972.41;5052949;28;20033;-79
2022/03/31 03:43:58;;;;;;;3.53;3.20;;;;;;;4.38;72.01;99959.78;5020610;28;20022;-79
2022/03/31 03:46:23;;;;;;;3.03;2.83;;;;;;;4.30;72.04;99964.69;5012584;28;20034;-80
2022/03/31 03:48:48;;;;;;;3.72;3.30;;;;;;;4.28;72.08;99963.97;5014075;28;20504;-79
2022/03/31 03:51:14;;;;;;;4.57;3.17;;;;;;;4.17;72.25;99954.13;5013531;28;20034;-79
2022/03/31 03:53:39;;;;;;;3.45;3.15;;;;;;;4.14;72.38;99967.44;5013455;28;20064;-79
2022/03/31 03:56:05;;;;;;;2.88;2.72;;;;;;;4.10;72.47;99965.97;5012744;28;20401;-81
2022/03/31 03:58:30;;;;;;;2.83;2.63;;;;;;;4.04;72.42;99972.44;5014646;28;20026;-78
2022/03/31 04:00:55;;;;;;;3.15;2.95;;;;;;;4.06;72.68;99980.25;5014162;28;20021;-79
2022/03/31 04:03:21;;;;;;;3.40;3.10;;;;;;;4.05;72.77;99978.56;5014030;28;20365;-78
2022/03/31 04:05:46;;;;;;;3.17;2.88;;;;;;;4.01;73.04;99972.66;5014281;28;20045;-78
2022/03/31 04:08:13;;;;;;;3.42;3.20;;;;;;;3.94;73.85;99970.50;5012644;28;20046;-78
2022/03/31 04:10:39;;;;;;;3.80;2.97;;;;;;;3.93;74.19;99977.56;5014315;28;20018;-79
2022/03/31 04:13:04;;;;;;;3.22;3.03;;;;;;;3.90;74.37;99980.38;5019258;28;20114;-79
2022/03/31 04:15:29;;;;;;;3.28;2.97;;;;;;;3.87;74.81;99980.56;5030836;28;20136;-79
2022/03/31 04:17:55;;;;;;;3.70;3.40;;;;;;;3.84;75.16;99978.13;5033656;28;20048;-79
2022/03/31 04:20:20;;;;;;;3.40;3.10;;;;;;;3.80;75.52;99976.63;5033595;28;20029;-79
2022/03/31 04:22:45;;;;;;;3.30;3.00;;;;;;;3.75;75.62;99968.19;5015345;28;20476;-80
2022/03/31 04:25:12;;;;;;;3.85;3.55;;;;;;;3.78;75.35;99981.13;5012263;28;20160;-79
2022/03/31 04:27:38;;;;;;;3.53;3.22;;;;;;;3.79;75.90;99983.66;5014126;28;20455;-80
2022/03/31 04:30:07;;;;;;;3.10;2.90;;;;;;;3.70;75.61;99979.00;5014044;28;20029;-80
2022/03/31 04:32:33;;;;;;;3.15;2.72;;;;;;;3.64;76.23;99980.19;5012074;28;20614;-80
2022/03/31 04:34:58;;;;;;;3.75;3.25;;;;;;;3.59;75.74;99984.88;5025186;28;20057;-80
2022/03/31 04:37:23;;;;;;;2.90;2.70;;;;;;;3.52;76.22;99986.22;5035292;28;20257;-80
2022/03/31 04:39:48;;;;;;;2.97;2.78;;;;;;;3.50;76.79;99990.72;5033059;28;20029;-80
2022/03/31 04:42:14;;;;;;;2.60;2.40;;;;;;;3.44;77.24;99977.97;5028128;28;20100;-80
2022/03/31 04:44:39;;;;;;;2.75;2.40;;;;;;;3.37;77.39;99967.00;5012642;28;20049;-80
2022/03/31 04:47:06;;;;;;;2.53;2.38;;;;;;;3.42;76.47;99983.28;5012428;28;20045;-80
2022/03/31 04:49:31;;;;;;;2.30;2.20;;;;;;;3.39;76.72;99991.34;5012947;28;20125;-79
2022/03/31 04:51:56;;;;;;;2.33;2.22;;;;;;;3.37;77.70;99993.22;5012640;28;20113;-80
2022/03/31 04:54:22;;;;;;;2.63;2.40;;;;;;;3.36;77.00;99990.69;5012079;28;20060;-80
2022/03/31 04:56:47;;;;;;;2.78;2.22;;;;;;;3.33;77.28;99991.72;5011732;28;20032;-80
2022/03/31 04:59:12;;;;;;;2.40;2.20;;;;;;;3.26;76.94;99982.53;5011306;28;20040;-79
2022/03/31 05:01:38;;;;;;;2.75;2.33;;;;;;;3.23;77.04;99993.22;5011756;28;20021;-80
2022/03/31 05:04:06;;;;;;;2.60;2.40;;;;;;;3.17;77.56;99990.97;5011806;28;20029;-79
2022/03/31 05:06:31;;;;;;;2.60;2.40;;;;;;;3.14;77.12;99984.94;5012147;28;20033;-79
2022/03/31 05:08:56;;;;;;;2.80;2.60;;;;;;;3.10;77.73;99988.69;5011427;28;20045;-79
2022/03/31 05:11:22;;;;;;;6.00;2.58;;;;;;;3.06;77.00;99987.19;5011599;28;20036;-79
2022/03/31 05:13:47;;;;;;;2.72;2.53;;;;;;;2.99;77.75;99985.03;5011669;28;20092;-79
2022/03/31 05:16:12;;;;;;;3.40;2.60;;;;;;;2.92;77.70;99989.78;5011558;28;20104;-79
2022/03/31 05:18:38;;;;;;;2.30;2.20;;;;;;;2.86;77.52;99988.34;5011370;28;20028;-79
2022/03/31 05:21:03;;;;;;;2.50;2.30;;;;;;;2.85;77.83;99988.44;5011681;28;20061;-79
2022/03/31 05:23:28;;;;;;;3.08;2.42;;;;;;;2.78;77.73;99980.94;5012147;28;20037;-79
2022/03/31 05:25:54;;;;;;;2.45;2.20;;;;;;;2.79;77.42;99992.28;5012154;28;20056;-79
2022/03/31 05:28:19;;;;;;;2.40;2.20;;;;;;;2.76;77.81;99998.56;5012486;28;20026;-79
2022/03/31 05:30:44;;;;;;;2.38;2.20;;;;;;;2.73;77.50;99995.25;5012740;28;20038;-79
2022/03/31 05:33:10;;;;;;;2.53;2.33;;;;;;;2.69;77.70;99997.19;5012443;28;20477;-79
2022/03/31 05:35:36;;;;;;;3.55;2.45;;;;;;;2.63;78.02;99992.31;5012608;28;20022;-79
2022/03/31 05:38:02;;;;;;;2.15;2.00;;;;;;;2.60;77.85;99992.50;5013743;28;20388;-78
2022/03/31 05:40:27;;;;;;;2.60;2.40;;;;;;;2.54;77.57;99996.28;5047426;28;20032;-78
2022/03/31 05:42:55;;;;;;;2.58;2.38;;;;;;;2.53;77.81;99997.25;5017561;28;20034;-78
2022/03/31 05:45:20;;;;;;;2.65;2.45;;;;;;;2.49;78.08;99989.63;5014895;28;20041;-78
2022/03/31 05:47:45;;;;;;;2.45;2.25;;;;;;;2.50;77.56;99988.69;5015160;28;20090;-79
2022/03/31 05:50:12;;;;;;;2.60;2.40;;;;;;;2.51;77.93;99998.25;5027251;28;20046;-79
2022/03/31 05:52:38;;;;;;;2.55;2.35;;;;;;;2.43;78.63;100000.47;5012823;28;20040;-79
2022/03/31 05:55:09;;;;;;;2.40;2.20;;;;;;;2.40;77.93;99997.09;5013388;28;20037;-79
2022/03/31 05:57:36;;;;;;;3.33;2.20;;;;;;;2.37;78.12;99988.56;5015354;28;20030;-80
2022/03/31 06:00:05;;;;;;;3.67;2.30;;;;;;;2.38;78.76;99985.84;5037541;28;20504;-78
2022/03/31 06:02:30;;;;;;;3.10;2.30;;;;;;;2.37;78.29;99985.94;5037927;28;20113;-79
2022/03/31 06:04:56;;;;;;;2.35;2.15;;;;;;;2.32;78.74;99983.56;5034290;28;20552;-79
2022/03/31 06:07:21;;;;;;;2.95;2.10;;;;;;;2.28;79.25;99987.31;5034504;28;20032;-80
2022/03/31 06:09:46;;;;;;;2.40;2.30;;;;;;;2.22;79.81;99982.41;5034137;28;20052;-80
2022/03/31 06:12:11;;;;;;;2.40;2.17;;;;;;;2.26;79.44;99988.31;5036172;28;20021;-80
2022/03/31 06:14:36;;;;;;;2.50;2.40;;;;;;;2.27;79.57;99990.84;5035721;28;20396;-81
2022/03/31 06:17:02;;;;;;;2.13;2.03;;;;;;;2.22;79.73;99978.00;5035317;28;20120;-80
2022/03/31 06:19:27;;;;;;;2.35;2.17;;;;;;;2.25;79.51;99989.22;5035439;28;20029;-81
2022/03/31 06:21:53;;;;;;;2.13;2.03;;;;;;;2.22;79.72;99991.09;5035436;28;20490;-81
2022/03/31 06:24:18;;;;;;;2.75;2.55;;;;;;;2.24;80.03;99998.88;5033816;28;20537;-80
2022/03/31 06:26:43;;;;;;;2.10;2.00;;;;;;;2.25;79.96;99997.09;5013241;28;20053;-80
2022/03/31 06:29:09;;;;;;;2.30;2.10;;;;;;;2.20;80.18;100000.00;5015069;28;20040;-80
2022/03/31 06:31:35;;;;;;;2.40;2.30;;;;;;;2.22;80.55;99995.50;5015713;28;20022;-80
2022/03/31 06:34:01;;;;;;;2.88;2.70;;;;;;;2.24;80.88;100001.50;5031318;28;20052;-80
2022/03/31 06:36:28;;;;;;;2.53;2.15;;;;;;;2.22;80.58;100005.97;5031219;28;20158;-80
2022/03/31 06:38:53;;;;;;;2.70;2.50;;;;;;;2.18;80.95;100005.31;5024857;28;20041;-80
2022/03/31 06:41:19;;;;;;;3.13;2.92;;;;;;;2.11;80.75;99996.06;5023060;28;20703;-80
2022/03/31 06:43:46;;;;;;;3.35;2.38;;;;;;;2.11;80.73;100011.78;5017478;28;20041;-80
2022/03/31 06:46:15;;;;;;;2.97;2.75;;;;;;;2.11;81.08;100003.94;5032810;28;20025;-80
2022/03/31 06:48:42;;;;;;;3.13;2.83;;;;;;;2.11;81.69;100000.47;5027088;28;20034;-80
2022/03/31 06:51:09;;;;;;;3.13;2.92;;;;;;;2.14;81.84;100003.78;5032827;28;20100;-80
2022/03/31 06:53:37;;;;;;;3.50;3.28;;;;;;;2.13;81.53;100004.72;5020635;28;20457;-80
2022/03/31 06:56:06;;;;;;;3.47;3.17;;;;;;;2.18;81.48;100015.78;5025486;28;20026;-80
2022/03/31 06:58:32;;;;;;;3.80;3.50;;;;;;;2.19;81.64;100008.75;5027861;28;20034;-80
2022/03/31 07:00:58;;;;;;;3.53;3.20;;;;;;;2.18;81.32;100007.06;5026067;28;20385;-80
2022/03/31 07:03:23;;;;;;;3.75;3.45;;;;;;;2.17;81.63;100013.25;5025896;28;20042;-80
2022/03/31 07:05:49;;;;;;;5.15;4.00;;;;;;;2.12;82.21;100000.41;5020106;28;20412;-79
2022/03/31 07:08:15;;;;;;;3.35;3.15;;;;;;;2.12;81.72;100003.03;5017063;28;20052;-80
2022/03/31 07:10:41;;;;;;;3.58;3.38;;;;;;;2.07;81.74;99997.19;5024952;28;20049;-79
2022/03/31 07:13:06;;;;;;;3.40;3.10;;;;;;;2.08;82.01;100006.72;5016486;28;20049;-79
2022/03/31 07:15:33;;;;;;;3.70;3.50;;;;;;;2.03;82.13;100006.13;5021449;28;20439;-79
2022/03/31 07:18:03;;;;;;;4.00;3.67;;;;;;;2.04;82.42;100002.59;5017259;28;20029;-79
2022/03/31 07:20:29;;;;;;;3.53;3.22;;;;;;;2.01;82.93;99993.13;5027498;28;20370;-79
2022/03/31 07:22:55;;;;;;;3.42;3.22;;;;;;;2.09;82.92;100004.97;5025235;28;20050;-79
2022/03/31 07:25:22;;;;;;;3.70;3.50;;;;;;;2.13;83.59;100006.47;5032118;28;20116;-79
2022/03/31 07:27:49;;;;;;;3.70;3.40;;;;;;;1.98;82.70;99968.88;5020323;28;20056;-79
2022/03/31 07:30:16;;;;;;;4.10;3.80;;;;;;;2.19;83.96;100006.97;5019966;28;20028;-80
2022/03/31 07:32:51;;;;;;;3.50;3.30;;;;;;;2.21;83.24;99994.66;5026172;28;20017;-79
2022/03/31 07:35:18;;;;;;;4.22;3.83;;;;;;;2.26;83.15;99997.00;5027246;28;20040;-79
2022/03/31 07:37:43;;;;;;;5.63;3.97;;;;;;;2.30;83.35;100006.41;5028464;28;20021;-79
2022/03/31 07:40:10;;;;;;;4.22;3.92;;;;;;;2.32;83.67;100001.06;5037029;28;20034;-79
2022/03/31 07:42:35;;;;;;;4.22;3.83;;;;;;;2.37;84.17;100004.28;5020564;28;20033;-79
2022/03/31 07:45:00;;;;;;;3.88;3.63;;;;;;;2.34;83.25;100005.28;5026735;28;20518;-78
2022/03/31 07:47:26;;;;;;;3.72;3.42;;;;;;;2.38;83.54;100006.81;5030679;28;20044;-79
2022/03/31 07:49:52;;;;;;;3.65;3.35;;;;;;;2.40;83.79;100007.56;5034225;28;20052;-78
2022/03/31 07:52:18;;;;;;;4.15;3.85;;;;;;;2.42;83.62;100004.03;5031500;28;20392;-80
2022/03/31 07:54:43;;;;;;;3.50;3.13;;;;;;;2.39;83.70;100005.88;5025727;28;20159;-80
2022/03/31 07:57:09;;;;;;;3.28;3.08;;;;;;;2.44;83.48;100004.78;5029369;28;20114;-80
2022/03/31 07:59:34;;;;;;;6.10;3.30;;;;;;;2.47;84.02;100002.00;5024325;28;20026;-80
2022/03/31 08:02:01;;;;;;;3.90;3.20;;;;;;;2.48;83.53;99999.28;5030909;28;20545;-80
2022/03/31 08:04:27;;;;;;;3.53;3.25;;;;;;;2.53;83.53;99996.38;5031856;28;20361;-80
2022/03/31 08:06:52;;;;;;;3.60;3.30;;;;;;;2.54;83.40;99996.28;5020642;28;20036;-80
2022/03/31 08:09:20;;;;;;;3.15;2.95;;;;;;;2.52;83.83;99992.94;5034225;28;20551;-80
2022/03/31 08:11:46;;;;;;;3.03;2.83;;;;;;;2.50;83.73;99989.56;5033350;28;20075;-78
2022/03/31 08:14:11;;;;;;;3.10;2.90;;;;;;;2.53;83.44;99992.00;5023101;28;20050;-79
2022/03/31 08:16:37;;;;;;;3.10;2.90;;;;;;;2.52;83.64;99987.69;5013390;28;20041;-79
2022/03/31 08:19:02;;;;;;;3.05;2.83;;;;;;;2.54;83.30;99987.59;5015934;28;20041;-79
2022/03/31 08:21:27;;;;;;;3.30;3.10;;;;;;;2.56;84.02;99986.56;5026673;28;20045;-80
2022/03/31 08:23:53;;;;;;;3.47;3.17;;;;;;;2.58;83.99;99983.84;5047565;28;20060;-80
2022/03/31 08:26:18;;;;;;;3.65;3.35;;;;;;;2.56;83.90;99981.31;5038420;28;20400;-80
2022/03/31 08:28:44;;;;;;;3.95;3.65;;;;;;;2.65;83.98;99995.69;5038442;28;20068;-80
2022/03/31 08:31:09;;;;;;;3.78;3.47;;;;;;;2.66;83.99;99992.13;5036055;28;20104;-80
2022/03/31 08:33:35;;;;;;;3.53;3.22;;;;;;;2.72;84.01;99991.78;5026888;28;20038;-80
2022/03/31 08:36:00;;;;;;;3.15;2.95;;;;;;;2.75;83.02;99996.03;5016731;28;20037;-80
2022/03/31 08:38:25;;;;;;;4.63;3.50;;;;;;;2.75;83.52;99983.75;5017714;28;20041;-81
2022/03/31 08:40:53;;;;;;;3.58;3.35;;;;;;;2.77;83.71;99991.53;5030595;28;20035;-81
2022/03/31 08:43:20;;;;;;;4.60;3.33;;;;;;;2.74;83.47;99987.28;5037291;28;20036;-81
2022/03/31 08:45:54;;;;;;;3.92;3.63;;;;;;;2.81;83.88;99987.78;5037958;28;20026;-81
2022/03/31 08:48:21;;;;;;;3.65;3.35;;;;;;;2.87;83.79;100002.31;5034813;28;20449;-81
2022/03/31 08:50:47;;;;;;;3.40;3.20;;;;;;;2.90;83.39;100000.38;5035604;28;20025;-79
2022/03/31 08:53:12;;;;;;;3.60;3.30;;;;;;;2.96;83.47;99999.16;5017423;28;20030;-80
2022/03/31 08:55:37;;;;;;;3.40;3.08;;;;;;;3.00;83.30;100000.69;5014409;28;20046;-80
2022/03/31 08:58:03;;;;;;;3.85;3.55;;;;;;;3.05;83.36;100001.25;5016244;28;20026;-79
2022/03/31 09:00:28;;;;;;;3.80;3.42;;;;;;;3.09;82.99;100002.75;5013522;28;20129;-80
2022/03/31 09:02:56;;;;;;;3.85;3.42;;;;;;;3.10;83.10;100003.59;5014502;28;20056;-80
2022/03/31 09:05:22;;;;;;;3.30;3.10;;;;;;;3.15;83.80;100007.63;5016960;28;20121;-79
2022/03/31 09:07:52;;;;;;;3.70;3.10;;;;;;;3.20;83.98;100006.50;5014806;28;20053;-80
2022/03/31 09:10:47;;;;;;;5.00;3.38;;;;;;;3.28;83.12;100014.78;5035256;28;20048;-78
2022/03/31 09:13:18;;;;;;;3.90;3.50;;;;;;;3.21;82.91;99998.53;5040975;28;20026;-79
2022/03/31 09:15:49;;;;;;;3.30;3.10;;;;;;;3.27;82.92;100005.22;5039077;28;20405;-79
2022/03/31 09:18:17;;;;;;;3.30;3.10;;;;;;;3.29;82.23;100006.81;5038901;28;20040;-79
2022/03/31 09:20:43;;;;;;;3.87;3.50;;;;;;;3.33;82.11;100007.47;5040518;28;20049;-79
2022/03/31 09:23:15;;;;;;;3.80;3.10;;;;;;;3.32;82.20;100001.38;5041714;28;20112;-79
2022/03/31 09:25:41;;;;;;;4.93;3.90;;;;;;;3.43;82.75;100010.38;5022889;28;20030;-79
2022/03/31 09:28:13;;;;;;;6.28;3.85;;;;;;;3.46;82.18;100008.41;5032136;28;20035;-79
2022/03/31 09:30:49;;;;;;;5.22;4.55;;;;;;;3.45;81.78;100013.78;5042847;28;20108;-79
2022/03/31 09:33:50;;;;;;;4.65;4.00;;;;;;;3.50;81.63;100015.19;5041202;28;20033;-79
2022/03/31 09:36:21;;;;;;;4.43;4.03;;;;;;;3.52;81.41;100013.31;5042197;28;20026;-79
2022/03/31 09:38:55;;;;;;;4.50;3.90;;;;;;;3.57;81.63;100020.06;5045344;28;20025;-79
2022/03/31 09:41:31;;;;;;;5.18;4.10;;;;;;;3.57;81.41;100015.66;5060315;28;20377;-79
2022/03/31 09:44:01;;;;;;;4.75;3.90;;;;;;;3.60;81.66;100012.00;5064464;28;20033;-79
2022/03/31 09:46:33;;;;;;;5.97;3.92;;;;;;;3.59;81.57;100007.69;5046490;28;20061;-79
2022/03/31 09:49:08;;;;;;;4.70;3.88;;;;;;;3.63;80.74;100014.44;5035111;28;20066;-79
2022/03/31 09:51:34;;;;;;;4.95;4.45;;;;;;;3.64;81.40;100016.97;5027294;28;20413;-79
2022/03/31 09:53:59;;;;;;;4.85;4.00;;;;;;;3.68;81.69;100010.59;5029711;28;20084;-79
2022/03/31 09:56:25;;;;;;;4.38;3.97;;;;;;;3.73;80.90;100007.69;5026729;28;20030;-79
2022/03/31 09:58:53;;;;;;;4.43;4.03;;;;;;;3.77;81.14;100010.97;5029404;28;20037;-79
2022/03/31 10:01:18;;;;;;;4.43;3.75;;;;;;;3.76;81.45;100009.28;5027814;28;20021;-79
2022/03/31 10:03:44;;;;;;;3.75;3.45;;;;;;;3.76;80.30;100006.66;5027882;28;20384;-79
2022/03/31 10:06:12;;;;;;;5.35;3.70;;;;;;;3.76;80.30;99998.75;5030043;28;20022;-79
2022/03/31 10:08:42;;;;;;;6.72;3.83;;;;;;;3.77;81.05;99995.22;5029364;28;20037;-79
2022/03/31 10:11:09;;;;;;;4.68;4.28;;;;;;;3.83;81.76;99992.19;5035709;28;20038;-78
2022/03/31 10:13:50;;;;;;;5.68;4.20;;;;;;;3.82;80.57;99995.78;5041958;28;20030;-79
2022/03/31 10:16:19;;;;;;;4.88;3.80;;;;;;;3.81;81.34;99992.28;5041990;28;20457;-79
2022/03/31 10:18:46;;;;;;;4.13;3.72;;;;;;;3.80;80.42;99993.22;5040405;28;20037;-79
2022/03/31 10:21:14;;;;;;;5.30;4.22;;;;;;;3.83;80.62;100000.06;5042063;28;20029;-79
2022/03/31 10:26:33;;;;;;;5.18;4.03;;;;;;;3.91;81.70;99999.59;5038619;28;20518;-78
2022/03/31 10:29:08;;;;;;;4.28;3.95;;;;;;;3.95;81.08;100004.56;5019054;28;20034;-78
2022/03/31 10:31:42;;;;;;;4.20;3.83;;;;;;;4.01;81.43;100005.97;5037722;28;20064;-78
2022/03/31 10:34:10;;;;;;;4.05;3.67;;;;;;;4.05;81.79;100004.84;5036477;28;20114;-78
2022/03/31 10:36:38;;;;;;;6.00;3.47;;;;;;;4.06;80.79;100004.75;5034227;28;20030;-78
2022/03/31 10:39:06;;;;;;;3.67;3.35;;;;;;;4.10;80.67;99996.66;5039777;28;20044;-78
2022/03/31 10:41:34;;;;;;;4.60;3.50;;;;;;;4.21;81.92;99997.69;5030970;28;20075;-78
2022/03/31 10:44:16;;;;;;;3.58;3.10;;;;;;;4.25;80.21;100003.56;5059061;28;20032;-78
2022/03/31 10:46:44;;;;;;;3.70;3.40;;;;;;;4.23;80.17;100001.03;5038494;28;20041;-78
2022/03/31 10:49:13;;;;;;;3.60;3.30;;;;;;;4.26;80.40;100000.84;5019365;28;20084;-78
2022/03/31 10:51:40;;;;;;;4.10;3.70;;;;;;;4.31;81.63;99994.44;5022739;28;20014;-78
2022/03/31 10:54:11;;;;;;;4.35;3.95;;;;;;;4.35;81.34;99994.16;5021012;28;20087;-78
2022/03/31 10:56:38;;;;;;;4.38;3.97;;;;;;;4.38;81.04;99987.84;5014858;28;20108;-78
2022/03/31 10:59:06;;;;;;;4.30;3.90;;;;;;;4.44;79.77;99987.44;5015506;28;20120;-78
2022/03/31 11:01:34;;;;;;;4.05;3.65;;;;;;;4.47;79.81;99989.88;5017376;28;20424;-78
2022/03/31 11:04:02;;;;;;;5.88;3.67;;;;;;;4.49;80.70;99985.38;5035977;28;20033;-78
2022/03/31 11:06:29;;;;;;;4.22;3.63;;;;;;;4.54;80.17;99980.66;5034826;28;20469;-78
2022/03/31 11:08:54;;;;;;;3.55;3.35;;;;;;;4.58;79.25;99984.78;5034943;28;20029;-79
2022/03/31 11:11:22;;;;;;;4.38;3.50;;;;;;;4.56;78.60;99978.78;5017874;28;20711;-79
2022/03/31 11:13:49;;;;;;;3.67;3.33;;;;;;;4.60;79.84;99985.53;5015290;28;20033;-79
2022/03/31 11:16:15;;;;;;;3.83;3.42;;;;;;;4.63;79.09;99990.59;5020901;28;20049;-79
2022/03/31 11:18:41;;;;;;;3.80;3.53;;;;;;;4.63;78.92;99980.06;5034747;28;20535;-79
2022/03/31 11:21:06;;;;;;;3.75;3.45;;;;;;;4.70;79.89;99975.25;5034935;28;20092;-78
2022/03/31 11:23:32;;;;;;;3.65;3.42;;;;;;;4.75;79.40;99978.41;5031228;28;20049;-78
2022/03/31 11:25:58;;;;;;;4.47;3.53;;;;;;;4.80;79.63;99970.22;5028444;28;20488;-79
2022/03/31 11:28:29;;;;;;;3.55;3.25;;;;;;;4.84;79.01;99970.84;5022529;28;20029;-80
2022/03/31 11:30:55;;;;;;;4.03;3.50;;;;;;;4.84;79.72;99965.59;5024759;28;20164;-80
2022/03/31 11:33:35;;;;;;;4.47;3.55;;;;;;;4.88;78.98;99962.66;5028044;28;20076;-80
2022/03/31 11:36:00;;;;;;;3.60;3.30;;;;;;;4.90;79.11;99960.75;5028876;28;20043;-79
2022/03/31 11:38:25;;;;;;;5.05;3.60;;;;;;;4.98;80.19;99963.72;5034143;28;20031;-80
2022/03/31 11:40:51;;;;;;;3.88;3.60;;;;;;;5.00;79.18;99958.34;5016748;28;20476;-80
2022/03/31 11:43:18;;;;;;;3.33;3.13;;;;;;;4.98;79.00;99953.19;5020915;28;20026;-79